Main page
METAR-TAF:

METAR-TAF

Airports :

Cazaux Air Base

Cazaux, France

latitude: 44-32N, longitude: 001-08W, elevation: 25 m

Current weather observation

The report was made 16 minutes ago, at 07:00 UTC
Wind 5 kt from the East/Northeast, varying between North/Northeast and East
Temperature 3°C
Humidity 93%
Pressure 1006 hPa
Visibility 10 km or more
no clouds below 1500 m and no cumulonimbus

METAR: LFBC 080700Z AUTO 06005KT 030V100 CAVOK 03/02 Q1006 NOSIG

Time: 08:16 (07:16 UTC)

Forecast

The report was made 5 hours and 16 minutes ago, at 02:00 UTC
Forecast valid from 08 at 03 UTC to 09 at 03 UTC
Wind 5 kt from the East/Northeast
Visibility 10 km or more
no clouds below 1500 m and no cumulonimbus
Becoming
from 08 at 13 UTC to 08 at 15 UTC
Visibility: 4000 m
Scattered clouds at a height of 1000 ft
Overcast at a height of 4500 ft
rain

TAF: LFBC 080200Z 0803/0903 06005KT CAVOK BECMG 0813/0815 4000 RA SCT010 OVC045

Weather observations and forecasts of more than 4000 airports (METAR and TAF reports).

The available stations are represented by yellow and red dots on the map.

Hover mouse over dot to see the name of the station.

Then click to see weather observations and forecasts.

To change the map : click on the green buttons with a black cross to zoom in, on the green button with a dash to zoom out, or on the green arrows for adjacent maps.


METAR-TAF: